createdAt,value
2023-02-27T00:08:20.373Z,9.27
2023-02-27T00:10:48.377Z,8.20
2023-02-27T00:13:15.881Z,6.85
2023-02-27T00:15:46.498Z,8.05
2023-02-27T00:18:14.065Z,9.50
2023-02-27T00:20:43.120Z,6.38
2023-02-27T00:23:11.467Z,7.85
2023-02-27T00:25:43.091Z,7.93
2023-02-27T00:28:10.631Z,7.20
2023-02-27T00:30:38.136Z,5.82
2023-02-27T00:33:05.991Z,7.50
2023-02-27T00:35:34.123Z,5.85
2023-02-27T00:38:03.092Z,7.93
2023-02-27T00:40:30.652Z,6.90
2023-02-27T00:42:59.371Z,5.78
2023-02-27T00:45:26.891Z,5.38
2023-02-27T00:47:54.541Z,7.05
2023-02-27T00:50:22.096Z,5.32
2023-02-27T00:52:51.385Z,6.78
2023-02-27T00:55:20.341Z,7.32
2023-02-27T00:57:48.780Z,6.10
2023-02-27T01:00:17.015Z,6.90
2023-02-27T01:02:44.675Z,5.45
2023-02-27T01:05:12.208Z,6.25
2023-02-27T01:07:39.976Z,6.47
2023-02-27T01:10:09.579Z,7.05
2023-02-27T01:12:40.852Z,6.57
2023-02-27T01:15:11.453Z,5.35
2023-02-27T01:17:41.147Z,5.22
2023-02-27T01:20:11.427Z,6.97
2023-02-27T01:22:39.443Z,5.32
2023-02-27T01:25:08.470Z,6.45
2023-02-27T01:27:41.430Z,5.47
2023-02-27T01:30:11.411Z,5.15
2023-02-27T01:32:39.907Z,4.28
2023-02-27T01:35:09.433Z,5.93
2023-02-27T01:37:37.200Z,4.82
2023-02-27T01:40:06.881Z,6.07
2023-02-27T01:42:35.369Z,4.85
2023-02-27T01:45:28.816Z,7.57
2023-02-27T01:48:03.808Z,7.82
2023-02-27T01:50:36.647Z,7.45
2023-02-27T01:55:38.779Z,6.65
2023-02-27T02:00:36.508Z,6.95
2023-02-27T02:03:10.678Z,6.03
2023-02-27T02:05:39.355Z,7.78
2023-02-27T02:08:09.785Z,6.25
2023-02-27T02:10:38.446Z,6.05
2023-02-27T02:13:06.083Z,8.13
2023-02-27T02:15:40.151Z,6.47
2023-02-27T02:18:20.552Z,5.45
2023-02-27T02:21:25.846Z,5.63
2023-02-27T02:24:20.192Z,5.38
2023-02-27T02:26:59.020Z,7.38
2023-02-27T02:30:02.391Z,5.88
2023-02-27T02:33:19.528Z,6.45
2023-02-27T02:36:39.455Z,8.65
2023-02-27T02:39:34.454Z,7.63
2023-02-27T02:42:07.848Z,6.05
2023-02-27T02:44:45.160Z,4.85
2023-02-27T02:47:24.351Z,5.80
2023-02-27T02:50:07.131Z,7.35
2023-02-27T02:52:51.792Z,6.10
2023-02-27T02:55:28.026Z,5.03
2023-02-27T02:58:00.378Z,5.82
2023-02-27T03:00:33.894Z,6.03
2023-02-27T03:03:08.001Z,6.82
2023-02-27T03:05:39.844Z,4.45
2023-02-27T03:10:44.369Z,4.97
2023-02-27T03:13:20.426Z,6.07
2023-02-27T03:15:56.383Z,8.73
2023-02-27T03:18:28.574Z,5.57
2023-02-27T03:21:05.300Z,6.43
2023-02-27T03:23:38.447Z,8.38
2023-02-27T03:26:09.575Z,6.75
2023-02-27T03:28:44.442Z,5.88
2023-02-27T03:31:23.556Z,7.82
2023-02-27T03:34:00.131Z,6.85
2023-02-27T03:36:40.406Z,7.70
2023-02-27T03:39:19.265Z,7.15
2023-02-27T03:41:59.724Z,7.05
2023-02-27T03:44:59.276Z,7.65
2023-02-27T03:47:28.735Z,8.38
2023-02-27T03:49:58.363Z,6.90
2023-02-27T03:52:27.223Z,7.78
2023-02-27T03:54:59.795Z,6.90
2023-02-27T03:57:31.471Z,6.20
2023-02-27T04:00:01.373Z,10.15
2023-02-27T04:02:30.441Z,7.47
2023-02-27T04:04:58.700Z,7.15
2023-02-27T04:07:55.391Z,7.82
2023-02-27T04:10:50.422Z,7.22
2023-02-27T04:13:55.372Z,6.88
2023-02-27T04:16:59.331Z,9.48
2023-02-27T04:19:42.467Z,6.43
2023-02-27T04:22:20.098Z,8.73
2023-02-27T04:24:58.068Z,6.82
2023-02-27T04:27:35.170Z,8.70
2023-02-27T04:30:21.372Z,7.60
2023-02-27T04:32:56.456Z,8.23
2023-02-27T04:35:29.967Z,6.47
2023-02-27T04:38:03.146Z,7.05
2023-02-27T04:40:36.126Z,7.97
2023-02-27T04:43:08.732Z,7.20
2023-02-27T04:45:42.602Z,5.32
2023-02-27T04:48:16.477Z,8.10
2023-02-27T04:50:50.365Z,8.48
2023-02-27T04:53:25.173Z,7.78
2023-02-27T04:56:01.357Z,6.50
2023-02-27T04:58:35.409Z,6.18
2023-02-27T05:01:14.954Z,7.15
2023-02-27T05:03:46.960Z,8.55
2023-02-27T05:06:19.377Z,6.43
2023-02-27T05:08:55.246Z,7.32
2023-02-27T05:11:29.601Z,7.10
2023-02-27T05:14:05.111Z,7.07
2023-02-27T05:16:39.403Z,8.00
2023-02-27T05:19:07.407Z,6.85
2023-02-27T05:21:40.456Z,8.05
2023-02-27T05:24:16.423Z,6.03
2023-02-27T05:27:03.103Z,7.47
2023-02-27T05:29:38.346Z,7.45
2023-02-27T05:32:17.528Z,8.20
2023-02-27T05:34:52.551Z,8.48
2023-02-27T05:37:25.858Z,9.85
2023-02-27T05:39:55.459Z,7.38
2023-02-27T05:42:31.707Z,7.93
2023-02-27T05:45:07.364Z,5.72
2023-02-27T05:47:40.638Z,7.70
2023-02-27T05:50:12.786Z,8.30
2023-02-27T05:52:43.798Z,6.80
2023-02-27T05:55:18.930Z,10.35
2023-02-27T05:57:50.672Z,8.55
2023-02-27T06:00:25.268Z,8.15
2023-02-27T06:02:54.345Z,7.38
2023-02-27T06:05:22.048Z,7.32
2023-02-27T06:07:49.563Z,7.28
2023-02-27T06:10:20.581Z,7.55
2023-02-27T06:12:48.451Z,7.40
2023-02-27T06:15:17.335Z,6.78
2023-02-27T06:17:44.869Z,6.85
2023-02-27T06:20:14.487Z,9.10
2023-02-27T06:22:42.349Z,7.18
2023-02-27T06:25:10.772Z,9.27
2023-02-27T06:27:41.709Z,7.50
2023-02-27T06:30:10.482Z,8.47
2023-02-27T06:32:39.828Z,8.48
2023-02-27T06:35:08.398Z,9.15
2023-02-27T06:37:37.387Z,8.20
2023-02-27T06:40:08.698Z,8.13
2023-02-27T06:42:38.339Z,6.55
2023-02-27T06:45:07.421Z,6.85
2023-02-27T06:47:35.990Z,8.35
2023-02-27T06:50:05.371Z,7.32
2023-02-27T06:52:33.368Z,7.30
2023-02-27T06:55:02.197Z,8.73
2023-02-27T06:57:29.788Z,6.18
2023-02-27T06:59:58.755Z,8.07
2023-02-27T07:02:27.439Z,6.93
2023-02-27T07:04:55.047Z,6.95
2023-02-27T07:07:32.399Z,6.95
2023-02-27T07:10:05.922Z,9.05
2023-02-27T07:12:34.514Z,8.55
2023-02-27T07:15:05.403Z,7.13
2023-02-27T07:17:33.361Z,8.87
2023-02-27T07:20:00.914Z,7.03
2023-02-27T07:22:28.798Z,7.07
2023-02-27T07:24:56.419Z,7.53
2023-02-27T07:27:26.330Z,6.25
2023-02-27T07:32:30.776Z,7.20
2023-02-27T07:34:58.391Z,6.10
2023-02-27T07:37:27.962Z,6.72
2023-02-27T07:40:21.755Z,8.65
2023-02-27T07:42:53.168Z,8.02
2023-02-27T07:45:22.376Z,7.82
2023-02-27T07:48:15.412Z,7.50
2023-02-27T07:50:44.348Z,7.65
2023-02-27T07:53:13.299Z,7.38
2023-02-27T07:55:42.370Z,10.02
2023-02-27T07:58:13.364Z,8.15
2023-02-27T08:00:41.346Z,9.13
2023-02-27T08:03:13.362Z,7.80
2023-02-27T08:05:40.905Z,9.50
2023-02-27T08:08:08.739Z,8.60
2023-02-27T08:10:36.236Z,9.93
2023-02-27T08:13:04.738Z,9.57
2023-02-27T08:15:35.259Z,8.48
2023-02-27T08:18:03.844Z,9.43
2023-02-27T08:20:31.964Z,9.32
2023-02-27T08:22:59.593Z,10.82
2023-02-27T08:25:31.113Z,10.27
2023-02-27T08:27:58.609Z,9.32
2023-02-27T08:30:26.346Z,10.95
2023-02-27T08:32:56.251Z,10.35
2023-02-27T08:35:25.030Z,7.95
2023-02-27T08:37:52.538Z,7.30
2023-02-27T08:40:23.145Z,6.63
2023-02-27T08:42:52.808Z,7.30
2023-02-27T08:45:22.424Z,6.30
2023-02-27T08:47:49.943Z,8.50
2023-02-27T08:50:19.046Z,6.55
2023-02-27T08:52:48.365Z,6.55
2023-02-27T08:55:17.076Z,7.90
2023-02-27T08:57:44.768Z,7.60
2023-02-27T09:00:15.068Z,8.10
2023-02-27T09:02:42.967Z,6.28
2023-02-27T09:05:11.347Z,8.43
2023-02-27T09:07:41.971Z,5.35
2023-02-27T09:10:10.673Z,7.82
2023-02-27T09:12:38.434Z,6.75
2023-02-27T09:15:07.360Z,8.90
2023-02-27T09:17:34.906Z,6.65
2023-02-27T09:20:04.361Z,8.40
2023-02-27T09:22:31.950Z,7.78
2023-02-27T09:25:01.386Z,7.85
2023-02-27T09:27:29.572Z,7.95
2023-02-27T09:29:57.856Z,8.07
2023-02-27T09:32:26.870Z,5.95
2023-02-27T09:34:54.836Z,7.57
2023-02-27T09:37:24.895Z,5.57
2023-02-27T09:39:53.008Z,8.23
2023-02-27T09:42:49.369Z,7.72
2023-02-27T09:45:23.263Z,7.75
2023-02-27T09:47:54.871Z,7.55
2023-02-27T09:50:35.224Z,6.07
2023-02-27T09:53:03.369Z,6.00
2023-02-27T09:55:35.955Z,8.55
2023-02-27T09:58:10.419Z,4.32
2023-02-27T10:00:53.364Z,4.50
2023-02-27T10:03:46.343Z,6.30
2023-02-27T10:06:26.873Z,7.43
2023-02-27T10:09:12.886Z,7.50
2023-02-27T10:12:22.435Z,5.47
2023-02-27T10:15:00.410Z,6.40
2023-02-27T10:20:28.860Z,10.00
2023-02-27T10:23:00.812Z,5.57
2023-02-27T10:25:36.152Z,6.68
2023-02-27T10:30:42.648Z,8.02
2023-02-27T10:33:14.662Z,7.60
2023-02-27T10:35:46.402Z,7.25
2023-02-27T10:38:27.697Z,5.22
2023-02-27T10:40:56.465Z,6.43
2023-02-27T10:43:24.282Z,17.08
2023-02-27T10:45:58.506Z,6.68
2023-02-27T10:48:27.831Z,5.88
2023-02-27T10:51:26.828Z,5.72
2023-02-27T10:54:15.404Z,6.63
2023-02-27T10:56:47.684Z,4.47
2023-02-27T10:59:21.467Z,6.55
2023-02-27T11:01:54.529Z,6.38
2023-02-27T11:07:04.420Z,10.70
2023-02-27T11:09:34.356Z,5.43
2023-02-27T11:12:22.446Z,8.63
2023-02-27T11:14:53.519Z,4.75
2023-02-27T11:17:26.348Z,6.03
2023-02-27T11:19:53.885Z,6.53
2023-02-27T11:22:24.719Z,5.82
2023-02-27T11:25:17.352Z,4.63
2023-02-27T11:27:47.161Z,5.95
2023-02-27T11:30:24.710Z,6.63
2023-02-27T11:32:54.372Z,5.63
2023-02-27T11:35:26.766Z,5.07
2023-02-27T11:38:01.837Z,6.07
2023-02-27T11:40:33.350Z,6.60
2023-02-27T11:43:04.848Z,7.38
2023-02-27T11:46:18.051Z,6.85
2023-02-27T11:48:26.274Z,6.47
2023-02-27T11:51:17.454Z,6.28
2023-02-27T11:54:05.693Z,7.18
2023-02-27T11:56:37.195Z,5.85
2023-02-27T11:59:13.423Z,6.93
2023-02-27T12:01:49.367Z,5.60
2023-02-27T12:04:22.642Z,6.03
2023-02-27T12:06:55.203Z,4.32
2023-02-27T12:09:35.358Z,4.93
2023-02-27T12:12:06.862Z,6.72
2023-02-27T12:14:43.781Z,5.82
2023-02-27T12:17:20.619Z,5.25
2023-02-27T12:20:00.387Z,5.40
2023-02-27T12:22:34.069Z,4.05
2023-02-27T12:25:07.006Z,5.43
2023-02-27T12:27:43.943Z,4.55
2023-02-27T12:30:19.138Z,4.13
2023-02-27T12:32:53.687Z,6.35
2023-02-27T12:35:27.476Z,6.30
2023-02-27T12:37:57.104Z,5.43
2023-02-27T12:40:31.772Z,4.28
2023-02-27T12:43:25.494Z,6.03
2023-02-27T12:46:15.473Z,6.28
2023-02-27T12:48:57.515Z,5.40
2023-02-27T12:51:39.621Z,6.35
2023-02-27T12:54:27.358Z,6.10
2023-02-27T12:57:09.181Z,5.95
2023-02-27T12:59:48.868Z,6.10
2023-02-27T13:02:31.350Z,5.53
2023-02-27T13:05:10.114Z,4.57
2023-02-27T13:07:50.467Z,4.82
2023-02-27T13:10:25.590Z,4.85
2023-02-27T13:13:00.055Z,8.10
2023-02-27T13:15:34.258Z,6.40
2023-02-27T13:18:11.347Z,3.78
2023-02-27T13:20:47.411Z,3.10
2023-02-27T13:23:23.437Z,4.97
2023-02-27T13:25:54.761Z,4.97
2023-02-27T13:28:26.477Z,4.85
2023-02-27T13:31:05.146Z,4.72
2023-02-27T13:33:40.436Z,5.45
2023-02-27T13:36:16.840Z,6.55
2023-02-27T13:38:47.253Z,6.38
2023-02-27T13:41:39.048Z,6.85
2023-02-27T13:44:41.016Z,4.88
2023-02-27T13:47:47.846Z,6.18
2023-02-27T13:50:51.202Z,6.80
2023-02-27T13:53:20.377Z,5.57
2023-02-27T13:55:49.438Z,6.18
2023-02-27T13:58:22.389Z,23.67
2023-02-27T14:01:16.329Z,5.50
2023-02-27T14:03:55.363Z,15.40
2023-02-27T14:06:27.157Z,5.80
2023-02-27T14:09:12.808Z,6.93
2023-02-27T14:11:55.459Z,4.38
2023-02-27T14:14:39.823Z,6.25
2023-02-27T14:17:12.360Z,5.28
2023-02-27T14:19:56.891Z,4.00
2023-02-27T14:23:09.117Z,4.00
2023-02-27T14:25:39.640Z,4.15
2023-02-27T14:28:21.670Z,4.57
2023-02-27T14:30:55.175Z,6.40
2023-02-27T14:33:39.496Z,6.63
2023-02-27T14:36:16.354Z,4.35
2023-02-27T14:38:44.161Z,5.80
2023-02-27T14:41:28.661Z,3.78
2023-02-27T14:43:59.127Z,5.32
2023-02-27T14:46:33.407Z,5.50
2023-02-27T14:49:10.426Z,3.35
2023-02-27T14:51:38.865Z,4.15
2023-02-27T14:54:12.962Z,3.33
2023-02-27T14:56:41.288Z,5.15
2023-02-27T14:59:24.374Z,4.45
2023-02-27T15:01:53.671Z,5.65
2023-02-27T15:04:27.003Z,5.15
2023-02-27T15:06:57.300Z,6.15
2023-02-27T15:09:31.608Z,4.00
2023-02-27T15:12:04.656Z,4.70
2023-02-27T15:14:36.463Z,4.93
2023-02-27T15:17:15.344Z,3.65
2023-02-27T15:19:53.525Z,4.00
2023-02-27T15:22:38.073Z,5.50
2023-02-27T15:25:30.828Z,5.47
2023-02-27T15:28:02.561Z,3.63
2023-02-27T15:30:31.917Z,3.97
2023-02-27T15:33:04.383Z,4.22
2023-02-27T15:38:06.011Z,3.42
2023-02-27T15:40:34.403Z,4.18
2023-02-27T15:43:03.343Z,5.22
2023-02-27T15:45:33.970Z,5.95
2023-02-27T15:48:01.876Z,4.63
2023-02-27T15:50:37.994Z,4.70
2023-02-27T15:53:11.990Z,5.38
2023-02-27T15:55:42.454Z,4.00
2023-02-27T15:58:38.724Z,5.10
2023-02-27T16:01:09.922Z,9.70
2023-02-27T16:03:41.302Z,4.60
2023-02-27T16:06:16.018Z,4.00
2023-02-27T16:11:41.060Z,6.82
2023-02-27T16:14:40.883Z,5.10
2023-02-27T16:17:26.436Z,4.57
2023-02-27T16:19:55.381Z,3.88
2023-02-27T16:22:24.784Z,4.80
2023-02-27T16:24:52.706Z,4.35
2023-02-27T16:27:25.341Z,5.15
2023-02-27T16:29:56.375Z,3.53
2023-02-27T16:32:29.133Z,4.18
2023-02-27T16:35:05.752Z,4.32
2023-02-27T16:37:40.515Z,6.57
2023-02-27T16:40:14.974Z,4.22
2023-02-27T16:42:43.370Z,5.13
2023-02-27T16:45:15.854Z,4.90
2023-02-27T16:47:45.349Z,10.68
2023-02-27T16:50:19.272Z,34.92
2023-02-27T16:52:48.418Z,68.75
2023-02-27T16:55:16.856Z,79.65
2023-02-27T16:57:44.889Z,91.32
2023-02-27T17:00:15.275Z,94.55
2023-02-27T17:02:42.930Z,89.18
2023-02-27T17:05:11.697Z,98.50
2023-02-27T17:07:39.285Z,75.38
2023-02-27T17:10:09.284Z,44.40
2023-02-27T17:12:37.681Z,27.05
2023-02-27T17:15:06.317Z,11.05
2023-02-27T17:17:34.676Z,8.38
2023-02-27T17:20:05.136Z,6.65
2023-02-27T17:22:35.826Z,6.80
2023-02-27T17:25:03.425Z,5.68
2023-02-27T17:27:32.422Z,5.10
2023-02-27T17:29:59.943Z,4.68
2023-02-27T17:32:27.464Z,4.93
2023-02-27T17:34:55.733Z,4.88
2023-02-27T17:37:24.702Z,6.20
2023-02-27T17:39:52.409Z,6.40
2023-02-27T17:42:19.942Z,6.05
2023-02-27T17:44:49.341Z,3.90
2023-02-27T17:47:17.333Z,5.07
2023-02-27T17:50:11.252Z,5.03
2023-02-27T17:52:38.999Z,5.53
2023-02-27T17:55:08.460Z,7.00
2023-02-27T17:57:36.278Z,6.22
2023-02-27T18:00:08.839Z,6.07
2023-02-27T18:02:37.108Z,5.10
2023-02-27T18:05:06.410Z,6.50
2023-02-27T18:07:35.400Z,4.93
2023-02-27T18:10:05.342Z,4.57
2023-02-27T18:12:33.396Z,6.40
2023-02-27T18:15:02.433Z,5.80
2023-02-27T18:17:31.261Z,5.97
2023-02-27T18:19:58.852Z,5.22
2023-02-27T18:22:29.765Z,8.85
2023-02-27T18:24:58.576Z,6.47
2023-02-27T18:27:27.914Z,5.85
2023-02-27T18:29:58.360Z,6.47
2023-02-27T18:32:26.424Z,6.68
2023-02-27T18:34:55.369Z,5.95
2023-02-27T18:37:22.987Z,5.82
2023-02-27T18:39:50.489Z,6.30
2023-02-27T18:42:19.453Z,6.38
2023-02-27T18:44:48.462Z,8.50
2023-02-27T18:47:16.038Z,6.55
2023-02-27T18:49:43.760Z,7.07
2023-02-27T18:52:12.699Z,8.68
2023-02-27T18:54:41.348Z,7.43
2023-02-27T18:57:11.464Z,7.82
2023-02-27T18:59:41.120Z,7.60
2023-02-27T19:02:14.453Z,7.32
2023-02-27T19:04:41.994Z,5.68
2023-02-27T19:07:10.412Z,6.95
2023-02-27T19:09:39.592Z,6.68
2023-02-27T19:12:10.578Z,6.03
2023-02-27T19:14:38.449Z,10.33
2023-02-27T19:17:06.330Z,8.77
2023-02-27T19:19:35.311Z,9.52
2023-02-27T19:22:02.941Z,11.15
2023-02-27T19:24:31.029Z,9.38
2023-02-27T19:27:00.005Z,10.05
2023-02-27T19:29:27.537Z,9.18
2023-02-27T19:31:55.982Z,8.55
2023-02-27T19:34:23.538Z,12.45
2023-02-27T19:36:51.081Z,8.20
2023-02-27T19:39:22.131Z,8.95
2023-02-27T19:41:49.661Z,9.13
2023-02-27T19:44:18.536Z,8.35
2023-02-27T19:46:51.194Z,9.30
2023-02-27T19:49:20.665Z,11.32
2023-02-27T19:51:48.274Z,13.95
2023-02-27T19:54:17.308Z,13.45
2023-02-27T19:56:44.889Z,14.85
2023-02-27T19:59:13.420Z,14.27
2023-02-27T20:01:42.324Z,13.85
2023-02-27T20:04:12.590Z,11.13
2023-02-27T20:06:42.689Z,10.85
2023-02-27T20:09:13.377Z,8.30
2023-02-27T20:11:42.114Z,8.77
2023-02-27T20:14:10.348Z,5.95
2023-02-27T20:16:38.176Z,8.15
2023-02-27T20:19:10.012Z,7.10
2023-02-27T20:21:37.945Z,6.63
2023-02-27T20:24:06.232Z,8.10
2023-02-27T20:26:39.530Z,8.27
2023-02-27T20:29:10.649Z,8.95
2023-02-27T20:31:41.396Z,6.90
2023-02-27T20:34:13.232Z,8.02
2023-02-27T20:36:41.331Z,6.88
2023-02-27T20:39:09.993Z,6.55
2023-02-27T20:41:40.093Z,8.10
2023-02-27T20:44:08.446Z,7.40
2023-02-27T20:46:36.654Z,7.25
2023-02-27T20:49:06.057Z,7.07
2023-02-27T20:51:37.367Z,6.10
2023-02-27T20:54:07.845Z,6.00
2023-02-27T20:56:41.557Z,5.85
2023-02-27T20:59:12.549Z,6.30
2023-02-27T21:01:41.516Z,5.15
2023-02-27T21:04:09.732Z,6.43
2023-02-27T21:06:38.660Z,4.72
2023-02-27T21:09:08.362Z,4.70
2023-02-27T21:11:35.978Z,4.07
2023-02-27T21:14:06.212Z,6.28
2023-02-27T21:16:33.901Z,4.97
2023-02-27T21:19:01.412Z,6.47
2023-02-27T21:21:31.416Z,6.88
2023-02-27T21:26:34.584Z,5.10
2023-02-27T21:29:05.789Z,8.35
2023-02-27T21:31:35.009Z,9.07
2023-02-27T21:34:06.832Z,7.97
2023-02-27T21:39:07.821Z,7.97
2023-02-27T21:41:35.920Z,7.82
2023-02-27T21:44:05.235Z,8.93
2023-02-27T21:46:33.936Z,8.23
2023-02-27T21:49:02.364Z,7.72
2023-02-27T21:51:40.137Z,8.88
2023-02-27T21:54:12.503Z,11.05
2023-02-27T21:59:07.973Z,7.03
2023-02-27T22:01:36.450Z,10.27
2023-02-27T22:04:04.805Z,10.98
2023-02-27T22:06:34.536Z,9.45
2023-02-27T22:09:05.263Z,10.35
2023-02-27T22:11:35.415Z,8.10
2023-02-27T22:14:03.206Z,7.95
2023-02-27T22:16:30.866Z,7.82
2023-02-27T22:18:58.410Z,7.88
2023-02-27T22:21:28.551Z,6.70
2023-02-27T22:23:59.346Z,6.38
2023-02-27T22:26:29.051Z,7.20
2023-02-27T22:29:00.209Z,7.07
2023-02-27T22:31:31.222Z,6.93
2023-02-27T22:34:03.384Z,7.35
2023-02-27T22:36:33.104Z,7.65
2023-02-27T22:39:01.774Z,7.35
2023-02-27T22:41:32.635Z,7.80
2023-02-27T22:44:03.339Z,6.82
2023-02-27T22:46:33.388Z,7.38
2023-02-27T22:49:03.249Z,8.43
2023-02-27T22:51:32.145Z,5.80
2023-02-27T22:54:02.360Z,7.10
2023-02-27T22:56:30.877Z,9.50
2023-02-27T22:58:58.718Z,7.47
2023-02-27T23:01:29.811Z,7.03
2023-02-27T23:03:59.065Z,8.77
2023-02-27T23:06:29.022Z,7.35
2023-02-27T23:08:56.692Z,9.77
2023-02-27T23:11:24.571Z,6.63
2023-02-27T23:13:52.314Z,7.38
2023-02-27T23:16:20.633Z,7.30
2023-02-27T23:18:52.530Z,8.70
2023-02-27T23:21:23.927Z,9.55
2023-02-27T23:23:54.339Z,9.15
2023-02-27T23:26:22.300Z,7.97
2023-02-27T23:28:49.985Z,8.18
2023-02-27T23:31:17.585Z,6.45
2023-02-27T23:33:46.368Z,8.15
2023-02-27T23:36:16.349Z,7.38
2023-02-27T23:38:46.381Z,7.85
2023-02-27T23:41:17.278Z,9.25
2023-02-27T23:43:45.576Z,8.02
2023-02-27T23:46:16.377Z,8.15
2023-02-27T23:48:44.689Z,6.35
2023-02-27T23:51:13.001Z,7.28
2023-02-27T23:53:43.330Z,7.00
2023-02-27T23:56:16.050Z,8.48
2023-02-27T23:58:44.164Z,7.85
